Create Custom Reports and Graphics: Custom Report

Scotts Valley

Current Conditions

5/17/22 9:00 PM (-07:00)
Updated Every 15 Minutes
Temp 59.2 °F   3.1
RH 60 %   10
Dew Pt 45.3 °F   1.1
Wet Bulb 52.0 °F   0.7
Wind Dir S | 189 °
Wind Spd 0.8 mph   0.3
Wind Gust 2.3 mph   2.2
BatVolt 13.1 V   0.0
Monthly Rain 0.08 In
Seasonal Rainfall 21.46 In

Today & Yesterday

Midnight to Midnight

5/17/22 9:00 PM (-07:00)
Updated Every 15 Minutes
Daily Max Temp 82.0 °F   7.4
Time of Max Temp 1637
Daily Min Temp 33.7 °F   1.7
Time of Min Temp 0553
Daily Max Wind 15.3 mph   1.5
Time of Max Wind 1541
Max Wind Dir W | 262 °
Daily Rain 0.00 In
Daily Leaf Wet Hrs 6.0 hrs   2.3
Yest MaxT 74.6 °F
Yest MinT 35.4 °F
Yest MaxGst 16.9 mph
Yest Rain 0.00 In
Leaf Wet Hrs Yest 4.9 Hours

Last 7 Days

Scotts Valley

Hourly Data | America/Los_Angeles
as of 5/17/22 9:01 PM PDT
Date & Time Temp (°F) RH (%) Dew Pt (°F) Wind Dir (°) Wind Spd (mph) Wind Gust (mph) Leaf Wet (mins) BatVolt (V) Latest Rain (In) Daily Rain (In) Daily Min Temp (°F) Daily Max Temp (°F) Daily Max Wind (mph) Daily Leaf Wet Hrs (hrs)
5/17/22 - 2100 62.6 54 45.5 SSW | 213 1.7 5.3 0.0 13.1 0.00 0.00 33.7 82.0 15.3 6.0
5/17/22 - 2000 69.3 46 47.6 SW | 227 1.7 6.9 0.0 13.2 0.00 0.00 33.7 82.0 15.3 6.0
5/17/22 - 1900 74.5 39 47.9 W | 267 4.3 14.8 0.0 13.3 0.00 0.00 33.7 82.0 15.3 6.0
5/17/22 - 1800 80.9 30 46.4 NW | 309 2.2 9.6 0.0 13.1 0.00 0.00 33.7 82.0 15.3 6.0
5/17/22 - 1700 80.4 32 47.9 WNW | 295 2.7 10.8 0.0 13.1 0.00 0.00 33.7 82.0 15.3 6.0
5/17/22 - 1600 79.6 31 46.2 W | 268 5.5 15.3 0.0 13.1 0.00 0.00 33.7 81.7 15.3 6.0
5/17/22 - 1500 80.6 27 43.2 W | 263 5.0 12.8 0.0 13.1 0.00 0.00 33.7 81.7 12.8 6.0
5/17/22 - 1400 79.8 29 44.6 WSW | 245 3.4 11.1 0.0 13.1 0.00 0.00 33.7 81.7 11.1 6.0
5/17/22 - 1300 76.7 40 50.4 NE | 45 2.0 6.8 0.0 13.2 0.00 0.00 33.7 78.6 7.0 6.0
5/17/22 - 1200 73.0 45 50.5 NE | 45 1.6 6.7 0.0 13.2 0.00 0.00 33.7 75.3 7.0 6.0
5/17/22 - 1100 67.7 51 48.9 E | 81 1.7 7.0 0.0 13.3 0.00 0.00 33.7 70.0 7.0 6.0
5/17/22 - 1000 63.6 54 46.6 ENE | 58 1.3 4.7 0.0 13.4 0.00 0.00 33.7 65.7 4.7 6.0
5/17/22 - 0900 57.6 66 46.4 E | 79 1.0 3.8 0.0 13.5 0.00 0.00 33.7 62.4 4.6 6.0
5/17/22 - 0800 46.1 96 45.0 NNW | 336 0.5 4.6 0.0 13.4 0.00 0.00 33.7 53.6 4.6 6.0
5/17/22 - 0700 35.4 98 35.1 SE | 137 0.5 2.2 59.7 12.8 0.00 0.00 33.7 40.4 2.4 6.0
5/17/22 - 0600 34.1 98 33.5 SSW | 210 0.1 1.4 60.0 12.6 0.00 0.00 33.7 40.4 2.4 5.0
5/17/22 - 0500 35.5 98 34.9 N | 353 0.1 2.0 60.0 12.7 0.00 0.00 34.8 40.4 2.4 4.0
5/17/22 - 0400 36.1 97 35.4 NE | 55 0.2 1.9 60.0 12.7 0.00 0.00 35.6 40.4 2.4 3.0
5/17/22 - 0300 38.0 97 37.2 SW | 216 0.5 2.4 60.0 12.7 0.00 0.00 37.0 40.4 2.4 2.0
5/17/22 - 0200 39.2 96 38.3 WSW | 254 0.3 2.0 60.0 12.7 0.00 0.00 38.1 40.4 2.0 1.0
5/17/22 - 0100 41.2 96 40.0 ESE | 119 0.5 2.6 60.0 12.8 0.00 0.00 35.4 74.6 16.9 4.9
5/17/22 - 0000 43.7 93 41.7 ESE | 114 0.4 2.2 16.1 12.8 0.00 0.00 35.4 74.6 16.9 3.9
5/16/22 - 2300 48.8 84 44.0 S | 171 0.6 2.4 0.0 12.9 0.00 0.00 35.4 74.6 16.9 3.7
5/16/22 - 2200 54.0 74 46.0 W | 259 1.2 6.4 0.0 13.0 0.00 0.00 35.4 74.6 16.9 3.7
5/16/22 - 2100 58.0 66 46.8 W | 272 1.9 9.5 0.0 13.1 0.00 0.00 35.4 74.6 16.9 3.7
5/16/22 - 2000 62.9 57 47.7 W | 266 3.7 12.2 0.0 13.2 0.00 0.00 35.4 74.6 16.9 3.7
5/16/22 - 1900 67.8 51 49.2 W | 269 4.6 13.5 0.0 13.4 0.00 0.00 35.4 74.6 16.9 3.7
5/16/22 - 1800 71.8 47 50.7 W | 275 3.8 13.9 0.0 13.2 0.00 0.00 35.4 74.6 16.9 3.7
5/16/22 - 1700 72.9 47 51.7 W | 271 4.6 16.9 0.0 13.2 0.00 0.00 35.4 74.6 16.9 3.7
5/16/22 - 1600 73.0 45 50.3 W | 266 6.1 15.7 0.0 13.2 0.00 0.00 35.4 74.6 15.7 3.7
5/16/22 - 1500 73.5 43 50.0 W | 267 5.9 15.7 0.0 13.2 0.00 0.00 35.4 74.6 15.7 3.7
5/16/22 - 1400 72.0 44 49.2 WSW | 258 4.8 14.8 0.0 13.2 0.00 0.00 35.4 74.5 14.8 3.7
5/16/22 - 1300 71.2 43 47.6 N | 358 2.9 11.2 0.0 13.2 0.00 0.00 35.4 72.6 11.2 3.7
5/16/22 - 1200 70.2 45 47.9 NNE | 28 2.0 8.1 0.0 13.2 0.00 0.00 35.4 71.3 8.1 3.7
5/16/22 - 1100 67.1 53 49.4 N | 11 1.3 5.7 0.0 13.3 0.00 0.00 35.4 69.6 6.4 3.7
5/16/22 - 1000 62.2 61 48.6 NNE | 12 1.2 4.6 0.0 13.4 0.00 0.00 35.4 64.2 6.4 3.7
5/16/22 - 0900 58.2 69 47.9 N | 356 1.7 5.7 0.0 13.5 0.00 0.00 35.4 60.3 6.4 3.7
5/16/22 - 0800 48.8 91 46.1 NE | 56 0.8 6.4 0.0 13.4 0.00 0.00 35.4 54.5 6.4 3.7
5/16/22 - 0700 37.1 98 36.6 W | 262 0.3 2.6 55.3 12.8 0.00 0.00 35.4 41.7 4.4 3.7
5/16/22 - 0600 36.3 97 35.4 S | 183 0.3 1.5 60.0 12.6 0.00 0.00 35.6 41.7 4.4 2.7
5/16/22 - 0500 38.5 96 37.6 S | 170 0.5 2.1 60.0 12.7 0.00 0.00 37.2 41.7 4.4 1.7
5/16/22 - 0400 39.4 96 38.4 ESE | 105 0.7 2.8 44.4 12.7 0.00 0.00 38.3 41.7 4.4 0.7
5/16/22 - 0300 38.8 94 37.1 WSW | 251 0.5 2.8 0.0 12.7 0.00 0.00 38.3 41.7 4.4 0.0
5/16/22 - 0200 40.2 89 37.2 NE | 47 0.8 4.4 0.0 12.8 0.00 0.00 38.7 41.7 4.4 0.0
5/16/22 - 0100 42.5 83 37.6 SSE | 167 0.5 2.4 0.0 12.8 0.00 0.00 41.1 77.6 17.9 6.1
5/16/22 - 0000 49.9 64 38.2 E | 85 0.8 5.0 0.0 12.9 0.00 0.00 42.1 77.6 17.9 6.1
5/15/22 - 2300 54.4 52 37.1 W | 264 2.3 9.6 0.0 12.9 0.00 0.00 42.1 77.6 17.9 6.1
5/15/22 - 2200 56.3 52 39.0 W | 270 3.0 11.2 0.0 13.0 0.00 0.00 42.1 77.6 17.9 6.1
5/15/22 - 2100 59.2 54 42.5 W | 278 1.8 8.0 0.0 13.1 0.00 0.00 42.1 77.6 17.9 6.1
5/15/22 - 2000 64.9 51 46.2 W | 280 2.6 9.9 0.0 13.3 0.00 0.00 42.1 77.6 17.9 6.1
5/15/22 - 1900 68.3 49 48.5 W | 265 4.5 13.8 0.0 13.4 0.00 0.00 42.1 77.6 17.9 6.1
5/15/22 - 1800 71.6 45 49.0 WNW | 284 3.0 12.2 0.0 13.3 0.00 0.00 42.1 77.6 17.9 6.1
5/15/22 - 1700 71.4 52 52.9 W | 273 4.6 17.1 0.0 13.3 0.00 0.00 42.1 77.6 17.9 6.1
5/15/22 - 1600 74.2 50 54.1 W | 263 5.7 16.1 0.0 13.3 0.00 0.00 42.1 77.6 17.9 6.1
5/15/22 - 1500 74.1 53 55.9 W | 265 5.5 16.0 0.0 13.3 0.00 0.00 42.1 77.6 17.9 6.1
5/15/22 - 1400 73.5 55 56.4 W | 264 6.9 16.8 0.0 13.3 0.00 0.00 42.1 77.6 17.9 6.1
5/15/22 - 1300 75.2 53 56.8 W | 263 6.2 17.9 0.0 13.2 0.00 0.00 42.1 77.6 17.9 6.1
5/15/22 - 1200 76.6 49 56.2 NW | 315 2.5 11.2 0.0 13.2 0.00 0.00 42.1 77.6 11.2 6.1
5/15/22 - 1100 73.8 53 55.7 NNW | 342 2.0 10.4 0.0 13.2 0.00 0.00 42.1 75.4 10.5 6.1
5/15/22 - 1000 70.1 61 55.8 N | 4 1.6 10.5 0.0 13.3 0.00 0.00 42.1 72.4 10.5 6.1
5/15/22 - 0900 65.1 70 55.1 NE | 39 1.5 4.8 0.0 13.4 0.00 0.00 42.1 68.3 4.8 6.1
5/15/22 - 0800 53.6 94 51.9 NNW | 348 0.6 3.6 8.8 13.3 0.00 0.00 42.1 61.3 3.6 6.1
5/15/22 - 0700 43.0 98 42.6 SSW | 199 0.0 0.7 60.0 12.7 0.00 0.00 42.1 48.6 1.6 6.0
5/15/22 - 0600 42.9 98 42.2 SSW | 200 0.0 0.5 60.0 12.6 0.00 0.00 42.4 48.6 1.6 5.0
5/15/22 - 0500 43.9 97 43.2 SSW | 213 0.2 1.4 60.0 12.6 0.00 0.00 43.0 48.6 1.6 4.0
5/15/22 - 0400 45.0 97 44.2 SW | 226 0.1 1.1 60.0 12.6 0.00 0.00 44.5 48.6 1.6 3.0
5/15/22 - 0300 46.2 96 45.3 SW | 218 0.1 1.6 60.0 12.7 0.00 0.00 45.7 48.6 1.6 2.0
5/15/22 - 0200 47.7 96 46.5 SSW | 213 0.1 1.1 60.0 12.7 0.00 0.00 46.7 48.6 1.1 1.0
5/15/22 - 0100 49.5 94 48.0 S | 171 0.2 2.0 10.0 12.7 0.00 0.00 38.1 85.8 13.9 6.4
5/15/22 - 0000 51.8 91 49.3 SW | 221 0.3 2.4 0.0 12.8 0.00 0.00 38.1 85.8 13.9 6.2
5/14/22 - 2300 55.4 83 50.4 SSE | 148 0.6 2.2 0.0 12.8 0.00 0.00 38.1 85.8 13.9 6.2
5/14/22 - 2200 61.8 69 51.6 SW | 236 0.6 4.5 0.0 12.9 0.00 0.00 38.1 85.8 13.9 6.2
5/14/22 - 2100 66.3 61 52.3 WSW | 256 1.2 4.7 0.0 13.0 0.00 0.00 38.1 85.8 13.9 6.2
5/14/22 - 2000 73.0 50 53.5 W | 266 1.2 6.2 0.0 13.1 0.00 0.00 38.1 85.8 13.9 6.2
5/14/22 - 1900 78.6 42 53.6 NW | 310 1.8 9.5 0.0 13.2 0.00 0.00 38.1 85.8 13.9 6.2
5/14/22 - 1800 80.4 40 53.7 W | 269 4.5 13.9 0.0 13.1 0.00 0.00 38.1 85.8 13.9 6.2
5/14/22 - 1700 83.1 38 54.6 W | 280 3.4 12.1 0.0 13.1 0.00 0.00 38.1 85.8 12.1 6.2
5/14/22 - 1600 84.4 30 49.7 SSW | 206 1.6 5.8 0.0 13.1 0.00 0.00 38.1 85.8 8.7 6.2
5/14/22 - 1500 81.7 30 47.0 E | 100 2.5 8.7 0.0 13.1 0.00 0.00 38.1 83.8 8.7 6.2
5/14/22 - 1400 79.3 31 46.5 E | 100 2.9 7.8 0.0 13.1 0.00 0.00 38.1 80.8 7.8 6.2
5/14/22 - 1300 76.2 42 51.1 ENE | 78 2.7 7.8 0.0 13.2 0.00 0.00 38.1 78.5 7.8 6.2
5/14/22 - 1200 74.4 47 53.0 ESE | 119 2.3 7.1 0.0 13.2 0.00 0.00 38.1 76.4 7.1 6.2
5/14/22 - 1100 67.6 60 53.3 SE | 126 2.0 6.0 0.0 13.3 0.00 0.00 38.1 71.3 7.0 6.2
5/14/22 - 1000 64.2 66 52.6 ESE | 110 2.2 7.0 0.0 13.4 0.00 0.00 38.1 65.9 7.0 6.2
5/14/22 - 0900 58.8 78 51.8 NNW | 343 0.6 4.2 0.0 13.5 0.00 0.00 38.1 63.3 4.2 6.2
5/14/22 - 0800 49.1 98 48.5 SSW | 208 0.0 1.2 11.4 13.4 0.00 0.00 38.1 55.0 2.4 6.2
5/14/22 - 0700 39.2 98 38.8 SSE | 158 0.1 1.8 60.0 12.7 0.00 0.00 38.1 47.6 2.4 6.0
5/14/22 - 0600 38.8 98 38.2 SW | 228 0.3 2.0 60.0 12.6 0.00 0.00 38.3 47.6 2.4 5.0
5/14/22 - 0500 40.1 97 39.4 SW | 225 0.1 1.1 60.0 12.6 0.00 0.00 39.3 47.6 2.4 4.0
5/14/22 - 0400 41.5 97 40.7 SSW | 199 0.2 1.3 60.0 12.7 0.00 0.00 40.7 47.6 2.4 3.0
5/14/22 - 0300 43.5 97 42.6 SSW | 213 0.1 1.1 60.0 12.7 0.00 0.00 42.5 47.6 2.4 2.0
5/14/22 - 0200 45.9 96 44.7 SW | 222 0.5 2.4 60.0 12.7 0.00 0.00 44.2 47.6 2.4 1.0
5/14/22 - 0100 49.3 94 47.7 WSW | 239 0.5 3.0 60.0 12.8 0.00 0.00 33.9 74.7 14.2 5.1
5/14/22 - 0000 50.5 93 48.5 WNW | 282 0.6 2.1 4.7 12.9 0.00 0.00 33.9 74.7 14.2 4.1
5/13/22 - 2300 55.9 81 50.2 E | 101 0.9 5.3 0.0 12.9 0.00 0.00 33.9 74.7 14.2 4.0
5/13/22 - 2200 58.6 76 51.1 W | 263 2.5 10.2 0.0 13.0 0.00 0.00 33.9 74.7 14.2 4.0
5/13/22 - 2100 61.0 71 51.6 WSW | 258 1.8 8.0 0.0 13.1 0.00 0.00 33.9 74.7 14.2 4.0
5/13/22 - 2000 65.4 63 52.3 W | 270 1.6 12.4 0.0 13.2 0.00 0.00 33.9 74.7 14.2 4.0
5/13/22 - 1900 70.1 54 52.7 WNW | 287 2.6 12.5 0.0 13.3 0.00 0.00 33.9 74.7 14.2 4.0
5/13/22 - 1800 72.8 48 52.1 NNW | 331 2.8 11.7 0.0 13.2 0.00 0.00 33.9 74.7 14.2 4.0
5/13/22 - 1700 73.3 48 52.4 NW | 309 3.2 12.5 0.0 13.2 0.00 0.00 33.9 74.7 14.2 4.0
5/13/22 - 1600 72.1 50 52.2 NW | 324 3.1 12.7 0.0 13.2 0.00 0.00 33.9 74.7 14.2 4.0
5/13/22 - 1500 72.0 50 52.1 WNW | 287 3.3 14.2 0.0 13.2 0.00 0.00 33.9 74.7 14.2 4.0
5/13/22 - 1400 70.9 52 52.6 W | 277 4.2 13.9 0.0 13.2 0.00 0.00 33.9 72.7 13.9 4.0
5/13/22 - 1300 68.8 53 51.3 WNW | 285 3.1 11.3 0.0 13.3 0.00 0.00 33.9 70.5 11.3 4.0
5/13/22 - 1200 67.6 55 51.0 N | 4 2.2 9.1 0.0 13.2 0.00 0.00 33.9 69.2 9.1 4.0
5/13/22 - 1100 64.1 59 49.3 NE | 54 1.8 6.1 0.0 13.3 0.00 0.00 33.9 67.4 6.1 4.0
5/13/22 - 1000 59.1 63 46.5 ENE | 71 1.7 5.7 0.0 13.4 0.00 0.00 33.9 61.6 5.7 4.0
5/13/22 - 0900 55.6 67 44.7 E | 101 2.0 5.7 0.0 13.5 0.00 0.00 33.9 57.0 5.7 4.0
5/13/22 - 0800 45.3 91 42.5 ESE | 108 0.5 3.6 7.1 13.4 0.00 0.00 33.9 52.7 3.6 4.0
5/13/22 - 0700 35.0 98 34.4 SSW | 206 0.3 1.9 60.0 12.7 0.00 0.00 33.9 46.1 2.8 3.9
5/13/22 - 0600 34.3 97 33.5 SW | 216 0.2 1.5 60.0 12.7 0.00 0.00 34.0 46.1 2.8 2.9
5/13/22 - 0500 35.1 96 34.1 ESE | 104 0.1 1.6 60.0 12.7 0.00 0.00 34.4 46.1 2.8 1.9
5/13/22 - 0400 36.6 96 35.4 SSE | 158 0.5 2.5 52.3 12.7 0.00 0.00 35.5 46.1 2.8 0.9
5/13/22 - 0300 38.2 93 36.3 S | 176 0.1 2.0 0.0 12.8 0.00 0.00 37.0 46.1 2.8 0.0
5/13/22 - 0200 42.5 86 38.5 E | 86 0.5 2.8 0.0 12.8 0.00 0.00 39.8 46.1 2.8 0.0
5/13/22 - 0100 46.2 80 40.3 WNW | 288 0.8 5.5 0.0 12.9 0.00 0.00 29.3 65.6 14.9 3.7
5/13/22 - 0000 44.2 86 40.4 W | 267 0.5 5.5 0.0 13.0 0.00 0.00 29.3 65.6 14.9 3.7
5/12/22 - 2300 46.9 80 41.1 WNW | 301 0.8 4.7 0.0 13.0 0.00 0.00 29.3 65.6 14.9 3.7
5/12/22 - 2200 49.2 76 42.0 W | 267 1.6 6.5 0.0 13.1 0.00 0.00 29.3 65.6 14.9 3.7
5/12/22 - 2100 51.6 70 42.2 W | 266 1.2 5.7 0.0 13.2 0.00 0.00 29.3 65.6 14.9 3.7
5/12/22 - 2000 55.7 60 42.2 W | 270 3.6 12.9 0.0 13.4 0.00 0.00 29.3 65.6 14.9 3.7
5/12/22 - 1900 59.8 52 42.3 W | 268 4.6 13.7 0.0 13.5 0.00 0.00 29.3 65.6 14.9 3.7
5/12/22 - 1800 62.4 48 42.3 W | 266 5.1 14.1 0.0 13.4 0.00 0.00 29.3 65.6 14.9 3.7
5/12/22 - 1700 63.8 45 42.0 W | 276 4.1 14.9 0.0 13.3 0.00 0.00 29.3 65.6 14.9 3.7
5/12/22 - 1600 63.8 42 40.6 W | 266 5.3 14.5 0.0 13.3 0.00 0.00 29.3 64.8 14.8 3.7
5/12/22 - 1500 62.8 44 40.8 W | 264 5.3 14.8 0.0 13.4 0.00 0.00 29.3 63.7 14.8 3.7
5/12/22 - 1400 62.0 47 41.4 W | 262 5.1 13.7 0.0 13.4 0.00 0.00 29.3 63.0 13.7 3.7
5/12/22 - 1300 59.5 45 38.3 N | 351 2.7 12.4 0.0 13.4 0.00 0.00 29.3 60.8 12.4 3.7
5/12/22 - 1200 55.6 51 37.5 NNW | 345 1.5 6.1 0.0 13.5 0.00 0.00 29.3 58.1 6.1 3.7
5/12/22 - 1100 52.2 56 37.1 ESE | 110 1.3 4.9 0.0 13.6 0.00 0.00 29.3 53.8 4.9 3.7
5/12/22 - 1000 48.9 65 37.7 E | 80 1.0 4.5 0.0 13.7 0.00 0.00 29.3 50.6 4.5 3.7
5/12/22 - 0900 46.9 75 39.3 ENE | 66 1.3 4.1 0.0 13.7 0.00 0.00 29.3 48.5 4.1 3.7
5/12/22 - 0800 38.0 99 37.7 WSW | 241 0.5 3.2 25.9 13.8 0.00 0.00 29.3 43.4 3.9 3.7
5/12/22 - 0700 30.8 98 30.4 NNE | 14 0.3 2.0 23.0 12.8 0.00 0.00 29.3 33.8 3.9 3.2
5/12/22 - 0600 30.2 98 29.7 SW | 214 0.9 3.9 0.0 12.6 0.00 0.00 29.6 32.0 3.9 2.8
5/12/22 - 0500 30.4 97 29.7 ENE | 77 0.3 3.4 0.0 12.7 0.00 0.00 29.9 32.0 3.4 2.8
5/12/22 - 0400 30.8 97 30.1 W | 273 0.5 2.1 50.4 12.7 0.00 0.00 30.3 32.0 2.1 2.8
5/12/22 - 0300 31.1 97 30.4 N | 4 0.3 2.1 60.0 12.8 0.00 0.00 30.7 32.0 2.1 2.0
5/12/22 - 0200 31.6 96 30.6 WSW | 251 0.2 1.9 60.0 12.8 0.00 0.00 30.9 32.0 1.9 1.0
5/12/22 - 0100 33.1 95 31.7 WNW | 282 0.3 1.6 46.2 12.9 0.00 0.00 26.0 65.4 16.3 3.3
5/12/22 - 0000 35.8 90 33.2 WNW | 297 0.3 2.3 0.0 13.0 0.00 0.00 26.0 65.4 16.3 2.5
5/11/22 - 2300 39.8 86 35.9 SW | 230 1.0 3.5 0.0 13.0 0.00 0.00 26.0 65.4 16.3 2.5
5/11/22 - 2200 42.6 82 37.4 SSW | 192 1.4 3.7 0.0 13.1 0.00 0.00 26.0 65.4 16.3 2.5
5/11/22 - 2100 47.5 73 39.3 W | 268 1.5 6.6 0.0 13.2 0.00 0.00 26.0 65.4 16.3 2.5
5/11/22 - 2000 52.3 63 40.0 W | 270 2.3 9.8 0.0 13.4 0.00 0.00 26.0 65.4 16.3 2.5
5/11/22 - 1900 57.5 52 39.7 W | 274 3.3 12.1 0.0 13.5 0.00 0.00 26.0 65.4 16.3 2.5
5/11/22 - 1800 61.1 46 40.1 WNW | 284 3.8 13.4 0.0 13.4 0.00 0.00 26.0 65.4 16.3 2.5
5/11/22 - 1700 62.8 43 40.0 W | 281 4.3 15.8 0.0 13.3 0.00 0.00 26.0 65.4 16.3 2.5
5/11/22 - 1600 63.2 40 38.1 W | 269 5.4 15.7 0.0 13.3 0.00 0.00 26.0 65.4 16.3 2.5
5/11/22 - 1500 63.8 36 36.0 W | 270 4.4 15.1 0.0 13.3 0.00 0.00 26.0 65.4 16.3 2.5
5/11/22 - 1400 62.1 37 35.8 W | 265 5.6 16.3 0.0 13.4 0.00 0.00 26.0 63.2 16.3 2.5
5/11/22 - 1300 61.7 40 37.1 NNW | 341 2.7 14.2 0.0 13.3 0.00 0.00 26.0 62.6 14.2 2.5
5/11/22 - 1200 60.0 40 35.4 NE | 51 2.8 9.6 0.0 13.4 0.00 0.00 26.0 62.0 9.6 2.5
5/11/22 - 1100 56.3 50 37.8 SE | 125 1.7 5.4 0.0 13.4 0.00 0.00 26.0 60.1 6.9 2.5
5/11/22 - 1000 50.9 63 38.7 ENE | 68 1.9 6.9 0.0 13.6 0.00 0.00 26.0 53.4 6.9 2.5
5/11/22 - 0900 46.7 70 37.6 NE | 46 1.3 5.6 0.0 13.6 0.00 0.00 26.0 49.8 5.6 2.5
5/11/22 - 0800 35.9 94 34.3 NE | 52 0.4 2.5 15.7 13.8 0.00 0.00 26.0 42.9 3.0 2.5
5/11/22 - 0700 26.8 97 26.0 NNW | 348 0.3 2.3 0.0 12.8 0.00 0.00 26.0 31.4 3.0 2.2
5/11/22 - 0600 26.8 97 26.0 WSW | 256 0.3 2.5 0.0 12.7 0.00 0.00 26.4 31.4 3.0 2.2
5/11/22 - 0500 27.6 97 26.8 W | 262 0.5 2.0 0.0 12.7 0.00 0.00 27.3 31.4 3.0 2.2
5/11/22 - 0400 28.5 97 27.7 SSE | 167 0.4 2.7 13.9 12.8 0.00 0.00 27.9 31.4 3.0 2.2
5/11/22 - 0300 29.1 96 28.1 E | 80 0.5 2.4 60.0 12.8 0.00 0.00 28.4 31.4 3.0 2.0
5/11/22 - 0200 30.8 96 29.7 SSW | 207 0.5 3.0 60.0 12.9 0.00 0.00 30.2 31.4 3.0 1.0
5/11/22 - 0100 33.0 94 31.4 SSW | 207 0.4 3.9 47.1 13.0 0.00 0.00 25.3 59.6 19.6 2.5
5/11/22 - 0000 35.3 91 32.8 SW | 221 0.8 2.5 0.0 13.1 0.00 0.00 25.3 59.6 19.6 1.7
5/10/22 - 2300 38.5 84 34.1 WNW | 292 0.2 4.3 0.0 13.2 0.00 0.00 25.3 59.6 19.6 1.7
5/10/22 - 2200 40.5 80 34.8 WNW | 300 0.5 6.1 0.0 13.2 0.00 0.00 25.3 59.6 19.6 1.7
Max 84.4 99 56.8 - 6.9 17.9 60.0 13.8 0.00 0.00 46.7 85.8 19.6 6.4
Avg 55.0 69 43.2 - 1.9 7.0 12.9 13.1 0.00 - - - - -
Min 26.8 27 26.0 - 0.0 0.5 0.0 12.6 0.00 0.00 25.3 31.4 1.1 0.0
Total - - - - - - - - 0.00 - - - - -

Last 30 Days

Scotts Valley

Daily Data | America/Los_Angeles
as of 5/17/22 9:01 PM PDT
Date Daily Max Temp (°F) Time of Max Temp Daily Min Temp (°F) Time of Min Temp Daily Rain (In) Monthly Rain (In) Seasonal Rainfall (In) Daily Max Wind (mph) Time of Max Wind Max Wind Dir (°) Wind Spd (mph) Dew Pt (°F) Max RH (%) Min RH (%) Daily Leaf Wet Hrs (hrs) Degree Hrs (hrs) Chilling <=45F (hrs) Chill Hrs 32-45F (hrs) Utah Chilling (Units) Chill Portions Hrs <= 32F (hrs) Hrs <= 28F (hrs) GDDs (DL) GDDs (Mx/Mn) Seas GDDs (DL) Seas GDDs (Smpl) Hrs 70-85F (hrs) Hrs > 95F (hrs) Powdery Mildew Stress (pts) Bee Hrs Today (Hrs) Storm Total (In) Daily Max Rain Intensity (In/Hr) Time of Max Rain Intensity Max 1 Min Rain (In) Max 1 Min Rain Time Max 15 Min Rain (In) Max 15 Min Precip Time Max 60 Min Rain (In) Max 60 Min Rain Time MinBV Day (V)
5/16/22 74.6 1452 35.4 0604 0.00 0.08 21.46 16.9 1613 WSW | 254 2.1 44.9 99 38 4.9 54.5 8.2 8.2 -1.0 - 0.0 0.0 9.9 5.0 260 113 6.65 0.00 60 12.0 - - - - - - - - - 12.6
5/15/22 77.6 1124 41.1 0059 0.00 0.08 21.46 17.9 1248 WSW | 256 2.3 48.0 100 37 6.1 78.9 4.5 4.5 -3.5 - 0.0 0.0 11.8 9.3 250 108 8.29 0.00 40 12.3 - - - - - - - - - 12.5
5/14/22 85.8 1555 38.1 0617 0.00 0.08 21.46 13.9 1717 WSW | 252 1.3 48.5 99 26 6.4 130.2 5.3 5.3 -4.5 - 0.0 0.0 14.1 12.0 239 99 8.69 0.00 20 12.0 - - - - - - - - - 12.6
5/13/22 74.7 1456 33.9 0610 0.00 0.08 21.46 14.2 1412 W | 263 1.7 46.4 99 44 5.1 48.1 6.3 6.3 -3.5 - 0.0 0.0 9.9 4.3 225 87 5.34 0.00 0 11.8 - - - - - - - - - 12.5
5/12/22 65.6 1634 29.3 0603 0.00 0.08 21.46 14.9 1617 W | 265 2.0 37.8 99 38 3.7 0.0 7.9 2.2 4.5 - 5.8 0.0 4.1 0.0 215 82 0.00 0.00 0 8.4 - - - - - - - - - 12.5
5/11/22 65.4 1448 26.0 0615 0.00 0.08 21.46 16.3 1332 WSW | 251 2.0 34.7 99 29 3.3 0.0 11.1 4.8 3.0 - 6.3 3.0 4.2 0.0 210 82 0.00 0.00 0 8.7 - - - - - - - - - 12.6
5/10/22 59.6 1433 25.3 0623 0.00 0.08 21.46 19.6 1532 NNE | 33 1.5 31.7 99 29 2.5 0.0 13.3 6.7 10.5 - 6.6 3.7 1.0 0.0 206 82 0.00 0.00 0 2.0 - - - - - - - - - 12.7
5/9/22 55.1 1334 31.3 0059 0.00 0.08 21.46 15.9 1521 WSW | 258 2.0 35.0 95 38 1.3 0.0 13.2 13.0 19.0 - 0.2 0.0 0.3 0.0 205 82 0.00 0.00 0 0.0 - - - - - - - - - 12.6
5/8/22 51.8 1550 32.3 0259 0.08 0.08 21.46 22.5 1529 W | 262 2.5 36.6 100 57 12.1 0.0 16.4 16.4 20.0 - 0.0 0.0 0.0 0.0 205 82 0.00 0.00 0 0.0 - 0.12 1131 0.01 1127 0.02 1132 0.02 1132 12.6
5/7/22 65.5 1515 37.0 0058 0.00 0.00 21.38 20.8 1627 W | 269 2.6 42.3 92 41 0.0 0.0 2.8 2.8 9.5 - 0.0 0.0 4.3 1.2 205 82 0.00 0.00 10 8.4 - - - - - - - - - 12.6
5/6/22 66.5 1639 44.2 2318 0.00 0.00 21.38 16.8 1501 SSW | 200 2.1 49.9 96 54 3.4 0.0 1.1 1.1 3.5 - 0.0 0.0 6.2 5.4 201 81 0.00 0.00 20 12.0 - - - - - - - - - 12.6
5/5/22 66.7 1159 43.6 0130 0.00 0.00 21.38 14.7 1337 W | 269 1.7 45.1 93 32 0.0 0.0 1.9 1.9 0.5 - 0.0 0.0 7.0 5.2 194 76 0.00 0.00 30 13.1 - - - - - - - - - 12.5
5/4/22 84.4 1547 34.8 0622 0.00 0.00 21.38 13.8 1652 WSW | 239 1.5 42.1 100 20 6.2 145.8 6.6 6.6 -2.5 - 0.0 0.0 14.0 9.6 188 71 9.85 0.00 40 11.6 - - - - - - - - - 12.5
5/3/22 79.9 1706 27.7 0627 0.00 0.00 21.38 7.6 1418 ENE | 74 1.2 37.9 99 23 2.9 70.4 8.4 3.7 -4.5 - 4.7 0.3 9.6 3.8 174 61 6.17 0.00 20 10.2 - - - - - - - - - 12.6
5/2/22 62.4 1434 34.0 0055 0.00 0.00 21.38 20.0 1345 W | 263 2.2 37.9 97 31 0.0 0.0 7.9 7.9 10.5 - 0.0 0.0 3.8 0.0 164 57 0.00 0.00 0 8.9 - - - - - - - - - 12.5
5/1/22 78.0 1611 29.7 0559 0.00 0.00 21.38 11.1 1752 WNW | 296 1.4 38.5 99 21 4.5 58.5 9.0 5.5 -3.5 - 3.6 0.0 9.2 3.8 160 57 5.72 0.00 0 10.3 - - - - - - - - - 12.6
4/30/22 67.0 1231 36.7 0059 0.00 1.88 21.38 20.3 1435 W | 271 2.7 44.4 97 51 1.4 0.9 5.7 5.7 6.0 - 0.0 0.0 5.9 1.8 151 53 0.00 0.00 0 11.1 - - - - - - - - - 12.5
4/29/22 71.4 1415 28.0 0551 0.00 1.88 21.38 15.7 1609 W | 271 1.4 36.8 99 27 5.0 19.3 9.0 4.3 -2.0 98 4.7 0.0 6.9 0.0 145 52 0.40 0.00 0 9.9 - - - - - - - - - 12.6
4/28/22 64.1 1532 34.2 0059 0.00 1.88 21.38 18.7 1435 W | 270 2.3 37.3 96 37 0.9 0.0 9.1 9.1 10.0 97 0.0 0.0 3.7 0.0 138 52 0.00 0.00 0 8.1 - - - - - - - - - 12.5
4/27/22 68.4 1436 29.7 0553 0.00 1.88 21.38 13.4 1412 WSW | 256 2.1 37.5 100 27 5.2 5.0 10.6 7.3 2.5 97 3.3 0.0 5.0 0.0 134 52 0.00 0.00 0 8.8 - - - - - - - - - 12.6
4/26/22 68.9 1604 35.6 0057 0.00 1.88 21.38 15.4 1351 WSW | 251 2.5 42.2 95 38 0.9 7.0 3.4 3.4 4.0 97 0.0 0.0 5.8 2.2 129 52 0.00 0.00 0 9.9 - - - - - - - - - 12.5
4/25/22 74.0 1409 36.5 0237 0.00 1.88 21.38 13.9 1339 W | 259 1.7 42.3 100 29 5.7 36.3 6.9 6.9 1.0 97 0.0 0.0 8.2 5.3 124 49 4.01 0.00 10 10.9 - - - - - - - - - 12.6
4/24/22 76.6 1537 31.9 0636 0.00 1.88 21.38 10.2 1807 W | 279 1.2 39.1 100 23 6.4 62.4 9.7 9.4 -1.5 97 0.3 0.0 9.6 4.3 115 44 6.51 0.00 20 10.6 - - - - - - - - - 12.5
4/23/22 72.4 1509 29.6 0624 0.00 1.88 21.38 11.6 1815 W | 266 1.2 39.2 100 29 5.7 22.8 9.8 6.3 -1.5 97 3.5 0.0 7.0 1.0 106 40 2.09 0.00 0 9.8 - - - - - - - - - 12.5
4/22/22 64.9 1639 31.5 0623 0.00 1.88 21.38 12.2 1300 W | 271 1.4 39.4 100 37 8.5 0.0 10.6 10.5 11.0 97 0.1 0.0 3.0 0.0 99 39 0.00 0.00 0 7.3 - - - - - - - - - 12.5
4/21/22 53.6 1351 38.4 2141 0.16 1.88 21.38 23.3 0124 WNW | 291 2.1 41.0 100 56 11.7 0.0 11.1 11.1 19.0 96 0.0 0.0 0.4 0.0 96 39 0.00 0.00 0 0.0 0.38 0.24 0200 0.01 0102 0.05 0120 0.13 0120 12.5
4/20/22 53.9 1440 31.8 0339 0.22 1.72 21.22 19.1 1301 SSW | 210 2.8 43.2 100 74 16.0 0.0 7.4 7.3 12.0 95 0.2 0.0 0.6 0.0 95 39 0.00 0.00 0 0.0 0.22 0.24 0029 0.01 1423 0.03 1610 0.07 1624 12.6
4/19/22 57.8 1631 35.6 0032 0.00 1.50 21.00 13.6 1519 W | 280 1.6 40.8 100 54 11.1 0.0 10.8 10.8 16.0 94 0.0 0.0 1.5 0.0 95 39 0.00 0.00 0 2.1 - 0.12 0101 - - - - 0.03 0101 12.5
4/18/22 57.5 1200 28.8 0504 0.24 1.50 21.00 16.3 1502 SSW | 211 2.0 41.7 99 57 11.7 0.0 8.0 3.0 7.5 94 5.0 0.0 1.2 0.0 93 39 0.00 0.00 0 2.1 0.24 0.15 2154 0.01 1944 0.04 2004 0.10 2041 12.5
4/17/22 66.7 1546 27.4 0659 0.00 1.26 20.76 11.7 1508 SW | 217 1.8 33.0 100 17 3.1 0.2 11.0 4.7 1.5 93 6.3 0.6 4.9 0.0 92 39 0.00 0.00 0 8.9 - - - - - - - - - 12.5
Max 85.8 - 44.2 - 0.24 1.88 21.46 23.3 - - 2.8 49.9 100 74 16.0 145.8 16.4 16.4 20.0 98 6.6 3.7 14.1 12.0 - - 9.85 0.00 - 13.1 0.38 0.24 - 0.01 - 0.05 - 0.13 - 12.7
Avg - - - - - 0.85 - - - - 1.9 40.5 - - - - 8.2 6.6 4.8 96 1.7 0.3 5.8 2.5 - - 2.12 0.00 - 8.0 0.28 - - - - - - - - -
Min 51.8 - 25.3 - 0.00 0.00 20.76 7.6 - - 1.2 31.7 92 17 0.0 0.0 1.1 1.1 -4.5 93 0.0 0.0 0.0 0.0 - - 0.00 0.00 - 0.0 0.22 0.12 - 0.01 - 0.02 - 0.02 - 12.5
Total - - - - - - - - - - - - - - - - 247.3 196.9 143.5 - 50.4 7.6 173.2 74.2 - - 63.72 0.00 - 240.9 - - - - - - - - - -

Climate Summary

Scotts Valley

Current Year | Showing 1/1/22 - 5/16/22
as of 5/17/22 9:01 PM PDT
Temperature (°F) Max Wind Gust (mph) Precip (in) Days
Month Days Avg High Avg Low Max Min Avg Max Total Daily Min Temp < 28 Daily Min Temp < 32 Daily Max Temp > 90 Daily Max Temp > 100 Daily Rain > 0.01 Daily Rain > 0.1
Jan 2022 31 62.3 27.6 72 19.6 10.8 28.3 0.52 18 26 0 0 4 2
Feb 2022 28 67.3 24.7 80.3 14.4 11.1 23 0.11 18 28 0 0 1 1
Mar 2022 31 68.2 31.4 85 21.1 14.9 24.8 0.66 8 15 0 0 5 3
Apr 2022 30 66.5 32.7 88 26.9 15.2 30.8 1.88 2 15 0 0 7 6
May 2022 16 69.6 34 85.8 25.3 16.1 22.5 0.08 3 6 0 0 1 0
Total 136 - - - - - - 3.25 49 90 0 0 18 12
Average 27.2 66.4 29.7 66.4 29.7 13.4 - 0.65 9.8 18 0 0 3.6 2.4
Maximum 31 69.6 34 88 - - 30.8 1.88 18 28 0 0 7 6
Minimum 16 62.3 24.7 - 14.4 - - 0.08 2 6 0 0 1 0

Climate Summary

Scotts Valley

Last Year | Showing 1/1/21 - 12/31/21
as of 5/17/22 9:01 PM PDT
Temperature (°F) Max Wind Gust (mph) Precip (in) Days
Month Days Avg High Avg Low Max Min Avg Max Total Daily Min Temp < 28 Daily Min Temp < 32 Daily Max Temp > 90 Daily Max Temp > 100 Daily Rain > 0.01 Daily Rain > 0.1
Jan 2021 31 56.4 31 78.2 16.7 12.1 31.4 3.73 8 20 0 0 16 5
Feb 2021 28 61.3 29.2 73.9 22.3 13.1 21.7 1.92 14 21 0 0 10 5
Mar 2021 31 62 28.2 78.9 22.3 15.1 22 2.2 14 26 0 0 6 5
Apr 2021 30 74.9 32.1 88.8 26.6 15.7 24.1 0.1 4 17 0 0 1 0
May 2021 31 81.7 38.9 102.4 28.8 17.1 26 0.12 0 2 3 1 2 0
Jun 2021 30 90.8 45.7 107.9 30.3 16.2 21.2 0 0 1 18 6 0 0
Jul 2021 31 100 50.1 108.7 42.4 15.1 17.4 0 0 0 31 15 0 0
Aug 2021 31 97.5 47.8 108.7 39 15.2 20.2 0 0 0 27 11 0 0
Sep 2021 30 91.4 42.5 103.3 31.2 13.5 20.1 0.09 0 1 18 4 1 0
Oct 2021 31 71.7 37.7 94.7 28.3 13.4 27 2.06 0 11 4 0 10 6
Nov 2021 30 66.4 33 76.6 22 8.7 16.6 1.76 6 12 0 0 6 4
Dec 2021 31 52.7 30.7 76.2 21.3 12.3 22.4 6.28 13 20 0 0 15 12
Total 365 - - - - - - 18.26 59 131 101 37 67 37
Average 30.4 75.6 37.3 75.6 37.3 14 - 1.52 4.9 10.9 8.4 3.1 5.6 3.1
Maximum 31 100 50.1 108.7 - - 31.4 6.28 14 26 31 15 16 12
Minimum 28 52.7 28.2 - 16.7 - - 0 0 0 0 0 0 0
Calm: 4.1%
Calm: 0.1%